Misawa, Japan
Current Conditions -  °F | °C
As of 9:00 AM on Saturday 29 Nov 2014 (Local Time) from RJSA Reporting Station
Light Rain Light Rain  
Wind Chill: 45°   Ceiling: 200
Heat Index: 48°   Visibility: 0.18mi
Dew Point: 46°   Wind: 7mph
Humidity: 93%   Direction: 50°NE
Pressure: 29.91"   Gusts: NA
Location:  40.68°N, 141.37°E
Report Text: RJSA 290000Z 05006KT 0300 R24/0300V0400N FG -RA VV002 09/08 Q1013
Loading
Personal Weather Stations






























Interactive Weather Map New forecast layout! Learn more

10-Day Weather Forecast

Advertisements
Track Severe Weather on mobile